CVOCORVALLIS MUNI
METARs for airports near CVO, sorted by distance:
N 0 nm 249' KCVO 222256Z 04006KT 10SM SCT012 07/03 A3042
S 22 nm 373' KEUG 222254Z 01010KT 10SM OVC011 06/03 A3040
NE 27 nm 213' KSLE 222256Z 34006KT 10SM CLR 09/04 A3040
W 33 nm 160' KONP 222335Z 05004KT 10SM CLR 12/04 A3034
N 42 nm 162' KMMV 222253Z 36006KT 10SM CLR 09/03 A3041
NE 50 nm 199' KUAO 222253Z 36007KT 10SM CLR 10/03 A3042
N 59 nm 39' KTMK 222330Z 29003KT 10SM CLR 12/07 A3036
N 64 nm 207' KHIO 222253Z 30003KT 10SM CLR 08/04 A3042
NE 71 nm 30' KPDX 222253Z 30006KT 10SM FEW100 FEW250 09/03 A3044
N 72 nm 28' KVUO 222253Z 30005KT 10SM CLR 09/03 A3044
NE 73 nm 38' KTTD 222153Z 27008KT 10SM CLR 08/03 A3044
S 75 nm 533' KRBG 222253Z 00000KT 10SM CLR 10/03 A3034
SW 76 nm 17' KOTH 222256Z 09003KT 10SM CLR 18/05 A3027
N 78 nm 58' KSPB 222253Z 00000KT 10SM CLR 09/03 A3043
E 92 nm 3081' KRDM 222256Z 31003KT 10SM CLR 12/M04 A3042
E 92 nm 3459' KBDN 222335Z 35005KT 10SM CLR 13/M11 A3044
N 98 nm 20' KKLS 222256Z VRB06KT 10SM CLR 09/03 A3045
TAFs for airports near CVO, sorted by distance:
S 22 nm 373' KEUG TAF KEUG 222331Z 2300/2324 01008KT P6SM OVC012
  FM230200 02008KT P6SM SCT015
  FM230800 35004KT 3SM BR SCT004 BKN010
  FM231200 00000KT 1/2SM FG OVC002
  FM232200 VRB02KT P6SM SCT002
NE 27 nm 213' KSLE TAF KSLE 222331Z 2300/2324 36007KT P6SM SKC
  FM231100 35004KT 6SM BR MIFG BKN015
  TEMPO 2314/2318 1SM BR OVC002
  FM232000 VRB02KT P6SM SCT002
W 33 nm 160' KONP TAF KONP 222331Z 2300/2324 03006KT P6SM SKC
  FM230200 11011G20KT P6SM SKC
NE 50 nm 199' KUAO KUAO 222331Z 2300/2324 02005KT P6SM SKC
  FM230900 36002KT 5SM BR MIFG FEW007 BKN015
  FM231400 00000KT 1/2SM FG OVC002
  FM232000 00000KT P6SM FEW002
N 64 nm 207' KHIO TAF KHIO 222331Z 2300/2324 02004KT P6SM SKC
  FM230700 35002KT 1SM BR SCT002 BKN009
  FM231100 00000KT 1/2SM FG OVC002
  FM231800 VRB02KT 6SM BR FEW002
NE 71 nm 30' KPDX TAF KPDX 222331Z 2300/2324 32005KT P6SM SKC
  FM231400 00000KT 6SM BR FEW003
  FM232100 VRB03KT P6SM FEW250
NE 73 nm 38' KTTD TAF KTTD 222331Z 2300/2324 27007KT P6SM SKC
  FM230100 08006KT P6SM SKC
  FM230500 10012G20KT P6SM SKC
  FM231200 10022G31KT P6SM SKC
  FM231800 10010KT P6SM FEW250
  AMD NOT SKED
S 75 nm 533' KRBG TAF KRBG 222337Z 2300/2324 00000KT P6SM SKC
  FM230700 00000KT 3SM BR BKN002
  FM230900 00000KT 1/4SM FG OVC002
  FM231800 00000KT 5SM BR SCT004
  FM231900 00000KT P6SM SKC
SW 76 nm 17' KOTH KOTH 222337Z 2300/2324 10004KT P6SM SKC
E 92 nm 3081' KRDM TAF KRDM 222320Z 2300/2324 VRB04KT P6SM FEW250
E 92 nm 3459' KBDN TAF KBDN 222320Z 2300/2324 VRB04KT P6SM FEW250

Shortcut to this page: http://wxbay.com.

Data may contain errors.